createdAt,value
2019-03-20T00:00:14.707Z,70.36
2019-03-20T00:01:14.669Z,70.26
2019-03-20T00:03:09.559Z,69.89
2019-03-20T00:04:09.497Z,70.26
2019-03-20T00:06:05.094Z,69.28
2019-03-20T00:07:05.064Z,68.33
2019-03-20T00:08:59.923Z,67.80
2019-03-20T00:09:59.894Z,68.08
2019-03-20T00:11:54.756Z,68.27
2019-03-20T00:12:54.717Z,67.90
2019-03-20T00:14:49.573Z,68.46
2019-03-20T00:15:49.539Z,67.61
2019-03-20T00:17:45.390Z,67.39
2019-03-20T00:18:45.359Z,67.86
2019-03-20T00:20:40.242Z,68.43
2019-03-20T00:21:40.186Z,68.81
2019-03-20T00:23:35.040Z,69.19
2019-03-20T00:24:35.002Z,69.00
2019-03-20T00:26:30.350Z,68.81
2019-03-20T00:27:30.301Z,68.62
2019-03-20T00:29:25.073Z,68.62
2019-03-20T00:30:25.040Z,68.71
2019-03-20T00:32:19.919Z,69.38
2019-03-20T00:33:19.858Z,69.28
2019-03-20T00:35:14.706Z,69.76
2019-03-20T00:36:14.682Z,69.28
2019-03-20T00:38:10.215Z,69.66
2019-03-20T00:39:10.162Z,69.47
2019-03-20T00:41:05.250Z,68.62
2019-03-20T00:42:05.214Z,67.96
2019-03-20T00:44:00.092Z,68.02
2019-03-20T00:45:00.036Z,67.83
2019-03-20T00:46:54.888Z,68.12
2019-03-20T00:47:54.849Z,68.30
2019-03-20T00:49:49.731Z,68.96
2019-03-20T00:50:49.665Z,68.87
2019-03-20T00:52:44.523Z,68.96
2019-03-20T00:53:44.501Z,69.25
2019-03-20T00:55:39.851Z,69.72
2019-03-20T00:56:39.814Z,69.72
2019-03-20T00:58:34.663Z,69.82
2019-03-20T00:59:34.627Z,69.53
2019-03-20T01:01:28.905Z,70.10
2019-03-20T01:02:28.863Z,70.29
2019-03-20T01:04:23.718Z,69.82
2019-03-20T01:05:23.691Z,69.25
2019-03-20T01:07:18.565Z,68.87
2019-03-20T01:08:18.511Z,69.06
2019-03-20T01:10:13.360Z,69.15
2019-03-20T01:11:13.322Z,69.63
2019-03-20T01:13:08.044Z,69.72
2019-03-20T01:14:08.001Z,69.82
2019-03-20T01:16:02.852Z,70.10
2019-03-20T01:17:02.817Z,70.29
2019-03-20T01:18:57.701Z,70.76
2019-03-20T01:19:57.634Z,70.39
2019-03-20T01:21:52.485Z,69.72
2019-03-20T01:22:52.449Z,69.91
2019-03-20T01:24:51.781Z,69.82
2019-03-20T01:25:51.726Z,69.25
2019-03-20T01:26:51.711Z,69.34
2019-03-20T01:27:51.691Z,69.06
2019-03-20T01:28:51.676Z,68.21
2019-03-20T01:29:51.660Z,67.55
2019-03-20T01:30:51.636Z,67.26
2019-03-20T01:31:51.625Z,67.26
2019-03-20T01:32:51.600Z,67.45
2019-03-20T01:33:51.585Z,68.21
2019-03-20T01:34:51.566Z,67.83
2019-03-20T01:35:51.547Z,67.45
2019-03-20T01:36:51.535Z,67.26
2019-03-20T01:37:51.510Z,67.64
2019-03-20T01:38:51.494Z,66.69
2019-03-20T01:39:51.483Z,67.26
2019-03-20T01:40:51.461Z,66.50
2019-03-20T01:41:51.443Z,65.47
2019-03-20T01:42:51.426Z,65.47
2019-03-20T01:43:51.407Z,64.80
2019-03-20T01:44:51.401Z,65.18
2019-03-20T01:45:51.369Z,64.71
2019-03-20T01:46:51.354Z,64.52
2019-03-20T01:47:51.340Z,64.42
2019-03-20T01:48:51.313Z,64.58
2019-03-20T01:49:51.295Z,64.96
2019-03-20T01:50:51.274Z,65.05
2019-03-20T01:51:51.263Z,65.34
2019-03-20T01:52:51.246Z,65.53
2019-03-20T01:53:51.228Z,65.72
2019-03-20T01:54:51.207Z,65.43
2019-03-20T01:55:51.191Z,65.91
2019-03-20T01:56:51.170Z,65.81
2019-03-20T01:57:51.153Z,65.91
2019-03-20T01:58:51.137Z,66.00
2019-03-20T01:59:51.118Z,65.91
2019-03-20T02:00:51.103Z,65.24
2019-03-20T02:01:51.083Z,65.43
2019-03-20T02:02:51.063Z,65.43
2019-03-20T02:03:51.044Z,65.34
2019-03-20T02:04:51.029Z,65.15
2019-03-20T02:05:51.011Z,65.81
2019-03-20T02:06:50.990Z,65.72
2019-03-20T02:07:50.973Z,65.81
2019-03-20T02:08:50.952Z,65.72
2019-03-20T02:09:50.939Z,65.81
2019-03-20T02:10:50.916Z,66.09
2019-03-20T02:11:50.902Z,66.28
2019-03-20T02:12:50.886Z,66.66
2019-03-20T02:13:50.865Z,67.32
2019-03-20T02:14:50.849Z,67.22
2019-03-20T02:15:50.832Z,67.13
2019-03-20T02:16:50.811Z,67.03
2019-03-20T02:17:50.791Z,67.22
2019-03-20T02:18:50.772Z,67.22
2019-03-20T02:19:50.757Z,67.13
2019-03-20T02:20:50.735Z,67.32
2019-03-20T02:21:50.723Z,65.91
2019-03-20T02:22:50.702Z,65.62
2019-03-20T02:23:50.683Z,64.96
2019-03-20T02:24:50.667Z,64.96
2019-03-20T02:25:50.647Z,65.34
2019-03-20T02:26:50.626Z,65.40
2019-03-20T02:27:50.608Z,65.11
2019-03-20T02:28:50.596Z,65.97
2019-03-20T02:29:50.578Z,66.44
2019-03-20T02:30:50.550Z,66.63
2019-03-20T02:31:50.540Z,67.38
2019-03-20T02:32:50.535Z,67.29
2019-03-20T02:33:50.505Z,67.47
2019-03-20T02:34:50.480Z,67.19
2019-03-20T02:35:52.189Z,67.57
2019-03-20T02:36:50.443Z,67.19
2019-03-20T02:37:50.426Z,66.53
2019-03-20T02:38:50.415Z,66.91
2019-03-20T02:39:50.389Z,67.10
2019-03-20T02:40:50.366Z,67.38
2019-03-20T02:41:50.352Z,67.29
2019-03-20T02:42:50.340Z,67.70
2019-03-20T02:43:50.313Z,67.10
2019-03-20T02:44:50.294Z,67.29
2019-03-20T02:45:50.279Z,66.75
2019-03-20T02:46:50.260Z,66.44
2019-03-20T02:47:50.311Z,66.25
2019-03-20T02:48:50.219Z,66.25
2019-03-20T02:49:50.204Z,65.68
2019-03-20T02:50:50.188Z,66.16
2019-03-20T02:51:50.169Z,66.44
2019-03-20T02:52:50.148Z,65.30
2019-03-20T02:53:50.131Z,64.17
2019-03-20T02:54:50.113Z,63.89
2019-03-20T02:55:50.093Z,63.89
2019-03-20T02:56:50.073Z,63.89
2019-03-20T02:57:50.065Z,64.17
2019-03-20T02:58:50.037Z,64.54
2019-03-20T02:59:50.017Z,65.30
2019-03-20T03:00:49.998Z,64.83
2019-03-20T03:01:49.981Z,65.11
2019-03-20T03:02:49.971Z,64.54
2019-03-20T03:03:49.938Z,64.17
2019-03-20T03:04:49.926Z,64.17
2019-03-20T03:05:49.903Z,63.51
2019-03-20T03:06:49.892Z,64.36
2019-03-20T03:07:49.869Z,64.64
2019-03-20T03:08:49.846Z,64.83
2019-03-20T03:09:49.828Z,64.54
2019-03-20T03:10:49.812Z,64.17
2019-03-20T03:11:49.795Z,63.42
2019-03-20T03:12:49.789Z,62.75
2019-03-20T03:13:49.756Z,61.71
2019-03-20T03:14:49.737Z,61.61
2019-03-20T03:15:49.715Z,61.80
2019-03-20T03:16:49.700Z,62.18
2019-03-20T03:17:49.685Z,61.80
2019-03-20T03:18:49.656Z,62.75
2019-03-20T03:19:49.641Z,62.56
2019-03-20T03:20:49.621Z,62.56
2019-03-20T03:21:49.605Z,62.09
2019-03-20T03:22:49.580Z,61.99
2019-03-20T03:23:49.569Z,61.43
2019-03-20T03:24:49.549Z,62.09
2019-03-20T03:25:50.334Z,62.66
2019-03-20T03:26:49.511Z,61.80
2019-03-20T03:27:49.495Z,61.80
2019-03-20T03:28:49.473Z,61.43
2019-03-20T03:29:49.460Z,61.43
2019-03-20T03:30:49.498Z,62.28
2019-03-20T03:31:49.455Z,62.56
2019-03-20T03:32:49.397Z,63.13
2019-03-20T03:33:49.474Z,62.94
2019-03-20T03:34:49.359Z,63.13
2019-03-20T03:35:49.338Z,63.23
2019-03-20T03:36:49.332Z,63.23
2019-03-20T03:37:49.306Z,63.13
2019-03-20T03:38:49.284Z,62.94
2019-03-20T03:39:49.264Z,63.35
2019-03-20T03:40:49.244Z,62.88
2019-03-20T03:41:49.233Z,61.36
2019-03-20T03:42:49.228Z,60.52
2019-03-20T03:43:49.197Z,60.58
2019-03-20T03:44:49.170Z,60.11
2019-03-20T03:45:49.152Z,60.67
2019-03-20T03:46:49.131Z,59.54
2019-03-20T03:47:49.112Z,60.58
2019-03-20T03:48:49.104Z,60.49
2019-03-20T03:49:49.082Z,61.33
2019-03-20T03:50:49.053Z,61.71
2019-03-20T03:51:49.040Z,62.28
2019-03-20T03:52:49.020Z,62.47
2019-03-20T03:53:49.010Z,62.56
2019-03-20T03:54:48.982Z,61.24
2019-03-20T03:55:48.962Z,60.01
2019-03-20T03:56:48.945Z,59.06
2019-03-20T03:57:48.930Z,58.97
2019-03-20T03:58:48.906Z,59.73
2019-03-20T03:59:48.884Z,60.58
2019-03-20T04:00:48.875Z,60.30
2019-03-20T04:01:48.856Z,61.05
2019-03-20T04:02:48.832Z,60.01
2019-03-20T04:03:48.813Z,59.73
2019-03-20T04:04:48.815Z,60.01
2019-03-20T04:05:48.784Z,60.39
2019-03-20T04:06:48.756Z,61.15
2019-03-20T04:07:48.745Z,61.33
2019-03-20T04:08:48.717Z,61.71
2019-03-20T04:09:48.702Z,61.52
2019-03-20T04:10:48.683Z,62.18
2019-03-20T04:11:48.657Z,61.99
2019-03-20T04:12:48.641Z,61.71
2019-03-20T04:13:48.632Z,62.09
2019-03-20T04:14:48.602Z,62.94
2019-03-20T04:15:48.584Z,62.28
2019-03-20T04:16:48.560Z,61.99
2019-03-20T04:17:48.556Z,61.43
2019-03-20T04:18:48.527Z,62.28
2019-03-20T04:19:48.509Z,62.09
2019-03-20T04:20:48.492Z,61.99
2019-03-20T04:21:48.486Z,61.52
2019-03-20T04:22:48.455Z,61.33
2019-03-20T04:23:48.433Z,61.61
2019-03-20T04:24:48.416Z,61.71
2019-03-20T04:25:48.395Z,61.52
2019-03-20T04:26:48.380Z,62.28
2019-03-20T04:27:48.357Z,61.43
2019-03-20T04:28:48.340Z,61.33
2019-03-20T04:29:48.329Z,61.15
2019-03-20T04:30:48.379Z,61.52
2019-03-20T04:31:48.289Z,61.40
2019-03-20T04:32:48.266Z,61.68
2019-03-20T04:33:48.241Z,62.06
2019-03-20T04:34:48.223Z,62.53
2019-03-20T04:35:48.201Z,63.19
2019-03-20T04:36:48.416Z,63.29
2019-03-20T04:37:48.166Z,64.14
2019-03-20T04:38:48.144Z,64.14
2019-03-20T04:39:48.129Z,64.14
2019-03-20T04:40:48.113Z,63.95
2019-03-20T04:41:48.092Z,63.42
2019-03-20T04:42:48.065Z,63.60
2019-03-20T04:43:48.058Z,64.14
2019-03-20T04:44:48.030Z,63.85
2019-03-20T04:45:48.032Z,63.85
2019-03-20T04:46:47.986Z,64.73
2019-03-20T04:47:48.026Z,64.83
2019-03-20T04:48:47.955Z,64.73
2019-03-20T04:49:47.937Z,64.26
2019-03-20T04:50:47.919Z,64.07
2019-03-20T04:51:47.890Z,63.60
2019-03-20T04:52:47.925Z,63.32
2019-03-20T04:53:47.857Z,62.66
2019-03-20T04:54:47.835Z,61.80
2019-03-20T04:55:47.820Z,62.53
2019-03-20T04:56:47.798Z,62.62
2019-03-20T04:57:47.786Z,63.10
2019-03-20T04:58:47.759Z,63.10
2019-03-20T04:59:47.743Z,63.10
2019-03-20T05:00:47.725Z,63.10
2019-03-20T05:01:47.702Z,63.76
2019-03-20T05:02:47.681Z,63.95
2019-03-20T05:03:47.665Z,64.04
2019-03-20T05:04:47.646Z,63.95
2019-03-20T05:05:47.625Z,63.48
2019-03-20T05:06:57.885Z,63.29
2019-03-20T05:07:47.586Z,62.72
2019-03-20T05:08:47.571Z,62.25
2019-03-20T05:09:47.547Z,61.87
2019-03-20T05:10:47.565Z,61.96
2019-03-20T05:11:47.510Z,62.34
2019-03-20T05:12:47.491Z,61.58
2019-03-20T05:13:47.465Z,61.68
2019-03-20T05:14:47.453Z,62.28
2019-03-20T05:15:47.432Z,61.33
2019-03-20T05:16:47.409Z,59.22
2019-03-20T05:17:47.391Z,58.47
2019-03-20T05:18:47.371Z,58.47
2019-03-20T05:19:47.351Z,58.56
2019-03-20T05:20:47.336Z,57.90
2019-03-20T05:21:47.328Z,58.09
2019-03-20T05:22:47.290Z,57.71
2019-03-20T05:23:47.277Z,58.37
2019-03-20T05:24:47.261Z,59.13
2019-03-20T05:25:47.236Z,59.70
2019-03-20T05:26:47.218Z,59.13
2019-03-20T05:27:47.208Z,59.13
2019-03-20T05:28:47.177Z,59.41
2019-03-20T05:29:47.161Z,60.08
2019-03-20T05:30:47.135Z,59.70
2019-03-20T05:31:47.119Z,58.94
2019-03-20T05:32:47.101Z,58.94
2019-03-20T05:33:47.101Z,59.32
2019-03-20T05:34:47.060Z,59.79
2019-03-20T05:35:47.063Z,59.22
2019-03-20T05:36:47.020Z,59.13
2019-03-20T05:37:47.004Z,59.03
2019-03-20T05:38:46.982Z,59.60
2019-03-20T05:39:46.962Z,59.22
2019-03-20T05:40:46.945Z,59.22
2019-03-20T05:41:47.236Z,58.47
2019-03-20T05:42:46.906Z,58.47
2019-03-20T05:43:46.879Z,58.56
2019-03-20T05:44:46.867Z,58.37
2019-03-20T05:45:46.842Z,58.09
2019-03-20T05:46:46.823Z,57.53
2019-03-20T05:47:46.808Z,57.81
2019-03-20T05:48:46.785Z,58.09
2019-03-20T05:49:46.771Z,58.00
2019-03-20T05:50:46.747Z,57.81
2019-03-20T05:51:46.725Z,58.47
2019-03-20T05:52:46.706Z,59.60
2019-03-20T05:53:46.694Z,58.47
2019-03-20T05:54:46.664Z,58.00
2019-03-20T05:55:46.647Z,57.24
2019-03-20T05:56:46.628Z,57.05
2019-03-20T05:57:46.610Z,57.74
2019-03-20T05:58:46.590Z,57.84
2019-03-20T05:59:46.566Z,59.54
2019-03-20T06:00:46.553Z,59.32
2019-03-20T06:02:41.424Z,57.55
2019-03-20T06:03:41.362Z,56.61
2019-03-20T06:05:36.216Z,58.40
2019-03-20T06:06:36.177Z,59.44
2019-03-20T06:08:32.008Z,59.22
2019-03-20T06:09:31.972Z,57.62
2019-03-20T06:11:26.833Z,57.05
2019-03-20T06:12:26.782Z,57.93
2019-03-20T06:14:22.626Z,56.80
2019-03-20T06:15:24.491Z,55.92
2019-03-20T06:17:17.432Z,56.04
2019-03-20T06:18:17.399Z,56.13
2019-03-20T06:20:12.271Z,56.04
2019-03-20T06:21:12.211Z,56.01
2019-03-20T06:23:07.561Z,56.11
2019-03-20T06:24:07.523Z,56.01
2019-03-20T06:26:01.900Z,56.32
2019-03-20T06:27:01.862Z,56.80
2019-03-20T06:28:56.703Z,56.04
2019-03-20T06:29:56.660Z,56.42
2019-03-20T06:31:51.515Z,56.32
2019-03-20T06:32:51.483Z,56.51
2019-03-20T06:34:48.962Z,56.04
2019-03-20T06:35:47.299Z,55.94
2019-03-20T06:37:42.655Z,54.91
2019-03-20T06:38:42.600Z,54.81
2019-03-20T06:40:38.429Z,55.19
2019-03-20T06:41:38.392Z,56.01
2019-03-20T06:43:33.272Z,56.11
2019-03-20T06:44:33.207Z,56.01
2019-03-20T06:46:28.057Z,57.05
2019-03-20T06:47:28.012Z,56.86
2019-03-20T06:49:22.864Z,57.53
2019-03-20T06:50:22.831Z,57.53
2019-03-20T06:52:17.679Z,57.81
2019-03-20T06:53:17.642Z,58.09
2019-03-20T06:55:12.220Z,57.74
2019-03-20T06:56:12.194Z,57.65
2019-03-20T06:58:06.945Z,57.18
2019-03-20T06:59:06.912Z,58.03
2019-03-20T07:01:02.258Z,57.55
2019-03-20T07:02:02.222Z,56.89
2019-03-20T07:03:57.064Z,55.94
2019-03-20T07:04:57.027Z,56.23
2019-03-20T07:06:51.913Z,55.19
2019-03-20T07:07:51.842Z,54.91
2019-03-20T07:09:46.380Z,54.46
2019-03-20T07:10:46.340Z,53.99
2019-03-20T07:12:41.187Z,54.18
2019-03-20T07:13:41.153Z,54.27
2019-03-20T07:15:37.006Z,54.55
2019-03-20T07:16:36.973Z,54.65
2019-03-20T07:18:32.328Z,54.84
2019-03-20T07:19:32.292Z,54.96
2019-03-20T07:21:27.137Z,54.68
2019-03-20T07:22:27.108Z,54.11
2019-03-20T07:24:21.964Z,53.45
2019-03-20T07:25:21.935Z,53.45
2019-03-20T07:27:16.780Z,52.91
2019-03-20T07:28:16.746Z,52.44
2019-03-20T07:30:12.192Z,52.06
2019-03-20T07:31:15.555Z,51.30
2019-03-20T07:33:07.055Z,51.39
2019-03-20T07:34:06.978Z,51.04
2019-03-20T07:36:01.864Z,50.66
2019-03-20T07:37:01.803Z,50.19
2019-03-20T07:38:56.682Z,49.05
2019-03-20T07:39:56.642Z,49.43
2019-03-20T07:41:51.711Z,49.71
2019-03-20T07:42:51.673Z,50.47
2019-03-20T07:44:47.083Z,50.76
2019-03-20T07:45:47.043Z,50.09
2019-03-20T07:47:41.901Z,49.17
2019-03-20T07:48:41.861Z,48.98
2019-03-20T07:50:36.716Z,48.79
2019-03-20T07:51:36.673Z,49.27
2019-03-20T07:53:32.516Z,49.19
2019-03-20T07:54:32.487Z,49.48
2019-03-20T07:56:28.815Z,47.96
2019-03-20T07:57:28.791Z,47.23
2019-03-20T07:59:23.635Z,43.62
2019-03-20T08:00:23.601Z,43.53
2019-03-20T08:02:18.318Z,43.15
2019-03-20T08:03:18.287Z,42.58
2019-03-20T08:05:14.105Z,40.21
2019-03-20T08:06:14.078Z,39.73
2019-03-20T08:08:08.936Z,39.92
2019-03-20T08:09:08.899Z,40.40
2019-03-20T08:11:24.724Z,39.47
2019-03-20T08:12:24.697Z,39.95
2019-03-20T08:14:19.550Z,41.46
2019-03-20T08:15:19.516Z,41.75
2019-03-20T08:17:14.923Z,40.53
2019-03-20T08:18:14.850Z,41.49
2019-03-20T08:20:10.297Z,41.39
2019-03-20T08:21:09.678Z,41.49
2019-03-20T08:23:05.373Z,41.69
2019-03-20T08:24:06.113Z,41.50
2019-03-20T08:26:31.640Z,41.50
2019-03-20T08:27:31.601Z,41.22
2019-03-20T08:29:26.449Z,40.29
2019-03-20T08:30:26.428Z,39.91
2019-03-20T08:32:24.362Z,38.48
2019-03-20T08:33:21.263Z,37.25
2019-03-20T08:35:35.135Z,36.70
2019-03-20T08:36:35.104Z,36.22
2019-03-20T08:38:35.964Z,35.56
2019-03-20T08:39:35.928Z,35.37
2019-03-20T08:41:31.093Z,35.17
2019-03-20T08:42:31.064Z,35.06
2019-03-20T08:44:26.925Z,36.02
2019-03-20T08:45:26.894Z,36.41
2019-03-20T08:47:21.750Z,36.13
2019-03-20T08:48:21.726Z,34.99
2019-03-20T08:50:17.147Z,35.35
2019-03-20T08:51:17.113Z,35.25
2019-03-20T08:53:12.379Z,35.35
2019-03-20T08:54:12.349Z,35.63
2019-03-20T08:56:07.207Z,35.63
2019-03-20T08:57:07.178Z,36.11
2019-03-20T08:59:02.053Z,36.40
2019-03-20T09:00:02.020Z,36.30
2019-03-20T09:01:57.870Z,36.58
2019-03-20T09:02:57.839Z,36.51
2019-03-20T09:04:52.699Z,36.04
2019-03-20T09:05:52.702Z,36.24
2019-03-20T09:07:48.413Z,35.38
2019-03-20T09:08:48.370Z,36.16
2019-03-20T09:10:48.138Z,35.78
2019-03-20T09:11:48.107Z,34.74
2019-03-20T09:13:42.971Z,33.01
2019-03-20T09:14:42.937Z,33.10
2019-03-20T09:16:38.309Z,33.28
2019-03-20T09:17:38.277Z,34.02
2019-03-20T09:19:33.135Z,33.83
2019-03-20T09:20:33.102Z,34.30
2019-03-20T09:22:31.146Z,34.51
2019-03-20T09:23:31.123Z,34.70
2019-03-20T09:25:25.980Z,34.53
2019-03-20T09:26:25.944Z,33.96
2019-03-20T09:28:21.309Z,33.03
2019-03-20T09:29:21.273Z,32.07
2019-03-20T09:31:16.973Z,31.04
2019-03-20T09:32:16.951Z,30.85
2019-03-20T09:34:11.811Z,30.47
2019-03-20T09:35:11.776Z,31.04
2019-03-20T09:37:06.648Z,30.76
2019-03-20T09:38:06.619Z,30.68
2019-03-20T09:40:01.523Z,29.63
2019-03-20T09:41:01.453Z,29.15
2019-03-20T09:42:56.096Z,29.34
2019-03-20T09:43:56.067Z,29.15
2019-03-20T09:45:51.903Z,29.34
2019-03-20T09:46:51.870Z,29.63
2019-03-20T09:48:46.734Z,29.15
2019-03-20T09:49:46.711Z,30.39
2019-03-20T09:51:41.592Z,30.29
2019-03-20T09:52:41.541Z,31.05
2019-03-20T09:54:37.382Z,29.91
2019-03-20T09:55:37.349Z,29.63
2019-03-20T09:57:32.242Z,29.91
2019-03-20T09:58:32.188Z,30.68
2019-03-20T10:00:28.061Z,30.29
2019-03-20T10:01:28.035Z,30.20
2019-03-20T10:03:22.897Z,28.96
2019-03-20T10:04:22.871Z,29.64
2019-03-20T10:06:17.707Z,30.21
2019-03-20T10:07:17.675Z,30.40
2019-03-20T10:09:31.547Z,29.36
2019-03-20T10:10:31.515Z,29.07
2019-03-20T10:12:26.370Z,27.18
2019-03-20T10:13:26.345Z,27.18
2019-03-20T10:15:21.215Z,26.03
2019-03-20T10:16:21.183Z,26.14
2019-03-20T10:18:16.045Z,25.47
2019-03-20T10:19:16.012Z,25.47
2019-03-20T10:21:10.883Z,25.58
2019-03-20T10:22:10.861Z,25.58
2019-03-20T10:24:06.568Z,25.49
2019-03-20T10:25:06.542Z,25.77
2019-03-20T10:27:01.410Z,25.68
2019-03-20T10:28:01.377Z,25.68
2019-03-20T10:29:56.250Z,24.44
2019-03-20T10:30:56.212Z,24.63
2019-03-20T10:32:50.782Z,24.15
2019-03-20T10:33:50.743Z,24.07
2019-03-20T10:36:04.614Z,24.83
2019-03-20T10:37:04.592Z,24.07
2019-03-20T10:39:06.488Z,24.37
2019-03-20T10:39:59.427Z,24.08
2019-03-20T10:41:54.591Z,23.12
2019-03-20T10:42:54.555Z,22.74
2019-03-20T10:44:49.927Z,23.12
2019-03-20T10:45:49.901Z,22.18
2019-03-20T10:47:44.780Z,22.27
2019-03-20T10:48:44.737Z,22.28
2019-03-20T10:50:39.604Z,21.42
2019-03-20T10:51:39.580Z,22.00
2019-03-20T10:53:35.440Z,22.30
2019-03-20T10:54:35.412Z,22.30
2019-03-20T10:56:31.247Z,20.66
2019-03-20T10:57:31.228Z,20.75
2019-03-20T10:59:26.122Z,20.55
2019-03-20T11:00:26.068Z,20.84
2019-03-20T11:02:56.919Z,20.84
2019-03-20T11:03:56.890Z,21.61
2019-03-20T11:05:52.035Z,20.56
2019-03-20T11:06:52.004Z,20.66
2019-03-20T11:08:46.890Z,20.65
2019-03-20T11:09:46.858Z,20.65
2019-03-20T11:11:41.729Z,21.70
2019-03-20T11:12:41.696Z,22.36
2019-03-20T11:14:36.576Z,21.59
2019-03-20T11:15:36.545Z,21.69
2019-03-20T11:17:31.112Z,23.23
2019-03-20T11:18:31.058Z,23.33
2019-03-20T11:20:25.930Z,22.39
2019-03-20T11:21:25.901Z,21.62
2019-03-20T11:23:21.776Z,19.62
2019-03-20T11:24:21.753Z,20.00
2019-03-20T11:26:16.609Z,20.76
2019-03-20T11:27:16.593Z,20.29
2019-03-20T11:29:11.482Z,20.48
2019-03-20T11:30:11.436Z,20.95
2019-03-20T11:32:06.310Z,20.66
2019-03-20T11:33:06.279Z,20.84
2019-03-20T11:35:01.153Z,20.18
2019-03-20T11:36:01.124Z,20.28
2019-03-20T11:37:57.476Z,19.62
2019-03-20T11:38:57.451Z,20.09
2019-03-20T11:40:52.334Z,20.48
2019-03-20T11:41:52.298Z,20.67
2019-03-20T11:43:47.166Z,21.17
2019-03-20T11:44:47.146Z,20.88
2019-03-20T11:46:42.019Z,19.64
2019-03-20T11:47:41.983Z,19.53
2019-03-20T11:49:36.892Z,19.52
2019-03-20T11:50:36.869Z,19.33
2019-03-20T11:52:32.244Z,19.90
2019-03-20T11:53:32.215Z,19.90
2019-03-20T11:55:27.076Z,20.09
2019-03-20T11:56:27.056Z,19.62
2019-03-20T11:58:21.925Z,19.73
2019-03-20T11:59:21.895Z,19.64
2019-03-20T12:01:16.780Z,19.07
2019-03-20T12:02:27.448Z,18.59
2019-03-20T12:04:11.634Z,18.88
2019-03-20T12:05:11.652Z,20.51
2019-03-20T12:07:06.471Z,22.33
2019-03-20T12:08:06.443Z,22.89
2019-03-20T12:10:01.321Z,22.22
2019-03-20T12:11:01.292Z,23.27
2019-03-20T12:12:56.231Z,22.21
2019-03-20T12:13:56.203Z,22.50
2019-03-20T12:15:51.096Z,22.41
2019-03-20T12:16:51.050Z,22.32
2019-03-20T12:18:45.923Z,22.42
2019-03-20T12:19:45.895Z,21.85
2019-03-20T12:21:40.769Z,21.85
2019-03-20T12:22:40.744Z,21.56
2019-03-20T12:24:35.694Z,21.08
2019-03-20T12:25:35.588Z,20.61
2019-03-20T12:27:30.457Z,20.50
2019-03-20T12:28:30.502Z,20.69
2019-03-20T12:30:25.308Z,21.07
2019-03-20T12:31:25.276Z,20.88
2019-03-20T12:33:20.157Z,21.07
2019-03-20T12:34:20.122Z,20.68
2019-03-20T12:36:15.470Z,21.35
2019-03-20T12:37:15.421Z,20.87
2019-03-20T12:39:10.048Z,21.45
2019-03-20T12:40:10.018Z,21.54
2019-03-20T12:42:04.909Z,21.25
2019-03-20T12:43:04.906Z,21.54
2019-03-20T12:44:59.739Z,21.54
2019-03-20T12:45:59.709Z,21.45
2019-03-20T12:47:55.081Z,20.97
2019-03-20T12:48:55.053Z,20.97
2019-03-20T12:50:49.931Z,21.17
2019-03-20T12:51:49.904Z,20.69
2019-03-20T12:53:44.774Z,19.92
2019-03-20T12:54:44.747Z,19.92
2019-03-20T12:56:40.717Z,18.98
2019-03-20T12:57:40.693Z,18.78
2019-03-20T12:59:35.573Z,18.79
2019-03-20T13:00:35.556Z,18.98
2019-03-20T13:02:30.920Z,18.79
2019-03-20T13:03:31.012Z,18.51
2019-03-20T13:05:25.789Z,18.33
2019-03-20T13:06:25.752Z,18.43
2019-03-20T13:08:21.147Z,17.86
2019-03-20T13:09:21.122Z,17.57
2019-03-20T13:11:16.007Z,17.47
2019-03-20T13:12:15.978Z,17.67
2019-03-20T13:14:10.851Z,18.44
2019-03-20T13:15:10.827Z,17.47
2019-03-20T13:17:05.713Z,18.04
2019-03-20T13:18:05.685Z,18.04
2019-03-20T13:20:00.439Z,16.98
2019-03-20T13:21:00.419Z,17.27
2019-03-20T13:22:55.397Z,17.66
2019-03-20T13:23:55.370Z,17.47
2019-03-20T13:25:50.247Z,16.89
2019-03-20T13:26:50.215Z,17.66
2019-03-20T13:29:03.280Z,17.47
2019-03-20T13:30:03.237Z,17.47
2019-03-20T13:31:58.606Z,17.96
2019-03-20T13:32:58.591Z,17.19
2019-03-20T13:34:53.476Z,16.99
2019-03-20T13:35:53.430Z,16.32
2019-03-20T13:37:49.302Z,16.80
2019-03-20T13:38:49.276Z,17.10
2019-03-20T13:40:44.164Z,16.14
2019-03-20T13:41:44.130Z,16.52
2019-03-20T13:43:38.997Z,15.94
2019-03-20T13:44:38.975Z,16.71
2019-03-20T13:46:33.845Z,16.04
2019-03-20T13:47:33.815Z,15.75
2019-03-20T13:49:29.818Z,15.56
2019-03-20T13:50:29.792Z,16.14
2019-03-20T13:52:24.688Z,15.47
2019-03-20T13:53:24.644Z,15.47
2019-03-20T13:55:19.525Z,16.24
2019-03-20T13:56:19.501Z,14.90
2019-03-20T13:58:14.476Z,15.00
2019-03-20T13:59:14.452Z,15.95
2019-03-20T14:01:09.317Z,15.47
2019-03-20T14:02:09.297Z,15.47
2019-03-20T14:04:04.179Z,15.66
2019-03-20T14:05:04.151Z,15.85
2019-03-20T14:06:59.032Z,16.33
2019-03-20T14:07:59.011Z,16.62
2019-03-20T14:09:53.398Z,16.33
2019-03-20T14:10:53.379Z,16.24
2019-03-20T14:12:48.247Z,16.13
2019-03-20T14:13:48.228Z,16.52
2019-03-20T14:15:43.126Z,16.80
2019-03-20T14:16:43.076Z,16.13
2019-03-20T14:18:37.959Z,16.80
2019-03-20T14:19:37.931Z,16.61
2019-03-20T14:21:33.812Z,16.80
2019-03-20T14:22:33.792Z,16.41
2019-03-20T14:24:29.664Z,17.08
2019-03-20T14:25:29.633Z,17.47
2019-03-20T14:27:24.518Z,17.09
2019-03-20T14:28:24.487Z,17.29
2019-03-20T14:30:19.354Z,16.99
2019-03-20T14:31:19.333Z,16.23
2019-03-20T14:33:14.217Z,16.32
2019-03-20T14:34:14.187Z,16.52
2019-03-20T14:36:09.057Z,16.33
2019-03-20T14:37:09.033Z,16.81
2019-03-20T14:39:05.052Z,16.42
2019-03-20T14:40:03.890Z,16.52
2019-03-20T14:41:58.769Z,16.33
2019-03-20T14:42:58.761Z,15.95
2019-03-20T14:44:54.616Z,15.86
2019-03-20T14:45:54.592Z,15.19
2019-03-20T14:47:49.475Z,14.81
2019-03-20T14:48:49.448Z,14.52
2019-03-20T14:50:44.333Z,15.00
2019-03-20T14:51:44.303Z,15.47
2019-03-20T14:53:38.678Z,15.38
2019-03-20T14:54:38.656Z,15.57
2019-03-20T14:56:33.536Z,15.77
2019-03-20T14:57:33.513Z,16.15
2019-03-20T14:59:47.382Z,16.04
2019-03-20T15:00:47.639Z,16.14
2019-03-20T15:02:42.242Z,16.80
2019-03-20T15:03:42.212Z,16.80
2019-03-20T15:05:37.087Z,17.39
2019-03-20T15:06:37.057Z,17.39
2019-03-20T15:08:31.938Z,17.76
2019-03-20T15:09:31.910Z,17.47
2019-03-20T15:11:26.786Z,18.73
2019-03-20T15:12:26.760Z,19.01
2019-03-20T15:14:21.638Z,18.91
2019-03-20T15:15:21.615Z,18.91
2019-03-20T15:17:16.483Z,19.87
2019-03-20T15:18:16.459Z,19.48
2019-03-20T15:20:15.305Z,19.38
2019-03-20T15:21:15.263Z,19.48
2019-03-20T15:22:15.264Z,19.77
2019-03-20T15:23:15.250Z,19.58
2019-03-20T15:24:15.239Z,20.15
2019-03-20T15:25:15.233Z,20.14
2019-03-20T15:26:15.221Z,20.25
2019-03-20T15:27:15.211Z,20.06
2019-03-20T15:28:15.204Z,20.34
2019-03-20T15:29:15.200Z,19.85
2019-03-20T15:30:15.190Z,19.77
2019-03-20T15:31:15.181Z,19.77
2019-03-20T15:32:15.177Z,20.15
2019-03-20T15:33:15.165Z,19.77
2019-03-20T15:34:15.153Z,19.29
2019-03-20T15:35:15.144Z,19.20
2019-03-20T15:36:15.132Z,19.38
2019-03-20T15:37:15.131Z,19.48
2019-03-20T15:38:15.134Z,19.48
2019-03-20T15:39:15.114Z,19.00
2019-03-20T15:40:15.105Z,19.87
2019-03-20T15:41:15.095Z,20.06
2019-03-20T15:42:15.093Z,20.25
2019-03-20T15:43:15.080Z,20.15
2019-03-20T15:44:15.072Z,19.87
2019-03-20T15:45:15.066Z,19.59
2019-03-20T15:46:15.055Z,19.10
2019-03-20T15:47:15.043Z,19.49
2019-03-20T15:48:15.035Z,19.11
2019-03-20T15:49:15.021Z,18.73
2019-03-20T15:50:15.023Z,18.82
2019-03-20T15:51:15.009Z,18.53
2019-03-20T15:52:15.002Z,18.44
2019-03-20T15:53:14.991Z,18.63
2019-03-20T15:54:14.985Z,19.01
2019-03-20T15:55:14.977Z,18.93
2019-03-20T15:56:14.971Z,17.87
2019-03-20T15:57:14.960Z,17.29
2019-03-20T15:58:14.952Z,16.80
2019-03-20T15:59:14.952Z,17.57
2019-03-20T16:00:14.935Z,17.47
2019-03-20T16:01:14.927Z,17.66
2019-03-20T16:02:14.917Z,17.94
2019-03-20T16:03:14.904Z,18.80
2019-03-20T16:04:14.902Z,18.99
2019-03-20T16:05:14.894Z,19.08
2019-03-20T16:06:14.883Z,18.77
2019-03-20T16:07:14.876Z,19.43
2019-03-20T16:08:14.867Z,20.56
2019-03-20T16:09:14.857Z,22.37
2019-03-20T16:10:14.851Z,23.22
2019-03-20T16:11:14.839Z,23.60
2019-03-20T16:12:14.833Z,24.16
2019-03-20T16:13:14.818Z,25.12
2019-03-20T16:14:14.815Z,25.31
2019-03-20T16:15:14.807Z,24.91
2019-03-20T16:16:14.798Z,25.29
2019-03-20T16:17:14.791Z,25.68